Time;durP1;ratioP1;P1;durP2;ratioP2;P2;SDS_P1;SDS_P2;PMS_P1;PMS_P2;Temp;Humidity;BMP_temperature;BMP_pressure;BME280_temperature;BME280_humidity;BME280_pressure;Samples;Min_cycle;Max_cycle;Signal;HPM_P1;HPM_P2
2022/10/25 00:01:31;;;;;;;6.70;2.70;;;;;;;10.49;78.86;101982.19;1854978;77;21499;-45
2022/10/25 00:04:00;;;;;;;8.00;3.62;;;;;;;10.51;78.75;101983.48;1845706;78;21043;-47
2022/10/25 00:06:28;;;;;;;6.42;2.52;;;;;;;10.54;78.69;101993.97;1845517;78;21075;-45
2022/10/25 00:08:57;;;;;;;4.30;2.45;;;;;;;10.55;78.66;101994.38;1850842;77;21030;-45
2022/10/25 00:11:28;;;;;;;6.45;2.30;;;;;;;10.55;78.65;101993.95;1847381;77;21118;-55
2022/10/25 00:13:59;;;;;;;4.37;2.42;;;;;;;10.57;78.57;102001.37;1845766;78;21048;-55
2022/10/25 00:16:31;;;;;;;5.80;2.40;;;;;;;10.59;78.36;102001.34;1845761;78;21109;-57
2022/10/25 00:18:59;;;;;;;3.75;2.30;;;;;;;10.58;78.27;102000.45;1849139;77;21022;-56
2022/10/25 00:21:28;;;;;;;8.15;3.55;;;;;;;10.61;78.17;102003.50;1860455;77;21132;-56
2022/10/25 00:23:57;;;;;;;40.63;16.12;;;;;;;10.61;78.09;102008.30;1860355;77;21090;-56
2022/10/25 00:26:26;;;;;;;33.40;15.53;;;;;;;10.62;78.08;102011.80;1860384;77;21038;-54
2022/10/25 00:28:55;;;;;;;30.82;14.18;;;;;;;10.62;78.12;102009.17;1859226;77;21079;-56
2022/10/25 00:31:24;;;;;;;28.60;9.78;;;;;;;10.59;78.18;102003.98;1815493;79;21079;-55
2022/10/25 00:33:53;;;;;;;13.48;5.25;;;;;;;10.54;78.51;102004.05;1815729;79;21063;-55
2022/10/25 00:36:24;;;;;;;8.45;3.70;;;;;;;10.50;78.56;102003.69;1845935;76;21155;-55
2022/10/25 00:38:55;;;;;;;5.67;3.02;;;;;;;10.46;78.79;101999.81;1845766;77;21083;-48
2022/10/25 00:41:30;;;;;;;8.85;3.65;;;;;;;10.40;78.94;101998.16;1846643;77;21079;-48
2022/10/25 00:44:37;;;;;;;6.58;3.47;;;;;;;10.36;79.22;102000.44;1845671;78;21052;-47
2022/10/25 00:47:17;;;;;;;6.22;3.02;;;;;;;10.31;79.36;101996.59;1845748;78;21142;-53
2022/10/25 00:49:49;;;;;;;7.15;3.12;;;;;;;10.29;79.21;101993.08;1845792;78;21454;-53
2022/10/25 00:52:18;;;;;;;7.80;3.67;;;;;;;10.24;79.29;101987.88;1843788;76;21651;-53
2022/10/25 00:54:50;;;;;;;7.78;3.37;;;;;;;10.19;79.45;101985.77;1882063;76;21135;-96
2022/10/25 00:57:34;;;;;;;11.78;4.20;;;;;;;10.10;79.79;101982.44;1881857;76;21057;-53
2022/10/25 01:00:05;;;;;;;8.95;3.80;;;;;;;10.02;79.64;101990.02;1869925;76;21121;-55
2022/10/25 01:02:34;;;;;;;5.60;3.25;;;;;;;9.97;79.60;101990.98;1846788;77;21565;-48
2022/10/25 01:05:03;;;;;;;8.25;4.37;;;;;;;9.91;79.59;101985.38;1845691;78;21133;-55
2022/10/25 01:07:32;;;;;;;11.95;6.28;;;;;;;9.86;79.63;101989.84;1845837;78;21435;-51
2022/10/25 01:10:00;;;;;;;12.43;6.37;;;;;;;9.78;80.03;101983.85;1845834;77;21037;-54
2022/10/25 01:12:29;;;;;;;14.78;6.25;;;;;;;9.74;79.99;101988.70;1845874;78;21120;-51
2022/10/25 01:14:58;;;;;;;10.35;4.92;;;;;;;9.65;80.19;101990.60;1845748;78;21043;-50
2022/10/25 01:17:38;;;;;;;8.23;4.12;;;;;;;9.59;80.33;101984.13;1845579;78;21056;-51
2022/10/25 01:20:29;;;;;;;10.90;4.97;;;;;;;9.52;80.40;101978.54;1845863;77;21454;-56
2022/10/25 01:23:17;;;;;;;7.08;3.40;;;;;;;9.45;80.68;101979.06;1846425;75;21476;-52
2022/10/25 01:26:04;;;;;;;10.03;4.40;;;;;;;9.35;80.98;101986.67;1845722;78;21153;-50
2022/10/25 01:29:10;;;;;;;13.45;5.60;;;;;;;9.29;80.84;101982.80;1844054;77;21117;-54
2022/10/25 01:31:44;;;;;;;12.43;5.00;;;;;;;9.24;81.00;101986.81;1853025;76;21469;-53
2022/10/25 01:34:19;;;;;;;13.58;5.28;;;;;;;9.17;81.39;101983.84;1859166;76;21591;-53
2022/10/25 01:37:02;;;;;;;11.90;4.85;;;;;;;9.10;81.82;101983.50;1877519;76;21162;-47
2022/10/25 01:39:37;;;;;;;12.68;6.10;;;;;;;9.06;81.91;101984.44;1889764;75;21158;-51
2022/10/25 01:42:09;;;;;;;24.92;13.13;;;;;;;9.00;82.14;101992.37;1890696;75;21109;-50
2022/10/25 01:44:40;;;;;;;16.80;11.85;;;;;;;9.00;82.16;101995.00;1889638;75;21498;-53
2022/10/25 01:47:12;;;;;;;20.65;14.45;;;;;;;8.99;82.62;102003.78;1890742;76;21113;-50
2022/10/25 01:49:43;;;;;;;16.35;7.80;;;;;;;8.99;82.77;101997.22;1890937;76;21042;-48
2022/10/25 01:52:13;;;;;;;12.07;6.58;;;;;;;8.99;82.91;102002.47;1890720;76;21064;-50
2022/10/25 01:54:42;;;;;;;10.68;5.15;;;;;;;9.01;82.89;102002.00;1890802;76;21147;-50
2022/10/25 01:57:22;;;;;;;12.25;6.62;;;;;;;9.00;82.70;102006.40;1890665;76;21622;-50
2022/10/25 02:00:09;;;;;;;11.08;8.28;;;;;;;8.99;82.72;102002.47;1889402;76;21528;-51
2022/10/25 02:02:58;;;;;;;14.38;7.92;;;;;;;8.97;82.82;101997.69;1890965;76;21074;-49
2022/10/25 02:05:44;;;;;;;14.03;7.70;;;;;;;8.98;82.82;102006.87;1881483;76;21055;-51
2022/10/25 02:08:28;;;;;;;11.22;4.58;;;;;;;8.99;82.83;102009.91;1890209;76;21055;-49
2022/10/25 02:11:22;;;;;;;6.72;4.03;;;;;;;8.98;82.97;101996.78;1890954;76;21035;-50
2022/10/25 02:13:51;;;;;;;;;;;;;;;8.98;82.96;101996.78;1893590;76;21442;-51
2022/10/25 02:16:26;;;;;;;6.08;3.33;;;;;;;8.97;83.00;101992.43;1889738;76;20117;-52
2022/10/25 02:19:01;;;;;;;7.33;3.50;;;;;;;8.94;82.92;101996.39;1890346;76;21115;-50
2022/10/25 02:21:32;;;;;;;11.88;6.70;;;;;;;8.88;83.16;101994.27;1890869;76;21114;-51
2022/10/25 02:24:04;;;;;;;12.25;6.37;;;;;;;8.81;83.36;101987.34;1890706;75;21024;-52
2022/10/25 02:26:34;;;;;;;10.70;5.80;;;;;;;8.74;83.52;101990.92;1889005;76;21044;-51
2022/10/25 02:29:04;;;;;;;11.18;5.25;;;;;;;8.71;83.63;101981.78;1890672;76;21145;-50
2022/10/25 02:31:35;;;;;;;9.63;4.47;;;;;;;8.68;83.68;101986.61;1890867;76;21475;-48
2022/10/25 02:34:05;;;;;;;10.32;4.58;;;;;;;8.62;83.79;101993.25;1890792;76;21041;-50
2022/10/25 02:36:34;;;;;;;11.63;4.78;;;;;;;8.55;83.95;101990.27;1883776;76;21477;-55
2022/10/25 02:39:04;;;;;;;8.45;4.47;;;;;;;8.52;84.03;101989.42;1860200;77;21113;-52
2022/10/25 02:41:33;;;;;;;10.13;4.30;;;;;;;8.52;83.96;101989.01;1859212;77;21120;-52
2022/10/25 02:44:01;;;;;;;12.45;5.28;;;;;;;8.49;84.12;101987.71;1860397;77;21115;-51
2022/10/25 02:46:30;;;;;;;11.90;5.53;;;;;;;8.48;84.20;101991.20;1851116;76;21126;-48
2022/10/25 02:48:59;;;;;;;11.90;5.28;;;;;;;8.44;84.48;101987.75;1845632;78;21040;-51
2022/10/25 02:51:28;;;;;;;8.85;5.08;;;;;;;8.45;84.53;101992.13;1846525;77;21040;-48
2022/10/25 02:53:56;;;;;;;10.32;5.17;;;;;;;8.44;84.52;101995.62;1845805;78;21126;-54
2022/10/25 02:56:25;;;;;;;10.45;4.40;;;;;;;8.42;84.70;101993.91;1845720;78;21119;-54
2022/10/25 02:58:56;;;;;;;9.13;4.37;;;;;;;8.41;84.70;101995.64;1845747;77;21044;-55
2022/10/25 03:01:25;;;;;;;10.53;4.40;;;;;;;8.42;84.69;101992.59;1846492;77;21123;-56
2022/10/25 03:03:54;;;;;;;12.75;6.65;;;;;;;8.43;84.43;101998.28;1842063;78;21785;-47
2022/10/25 03:06:23;;;;;;;12.78;7.67;;;;;;;8.42;84.51;102001.78;1845698;78;21050;-50
2022/10/25 03:08:51;;;;;;;10.60;6.15;;;;;;;8.40;84.73;101994.34;1845948;77;21060;-48
2022/10/25 03:11:20;;;;;;;18.62;6.65;;;;;;;8.34;84.94;101989.13;1845632;78;21044;-50
2022/10/25 03:13:49;;;;;;;9.53;4.58;;;;;;;8.33;84.82;101997.45;1845699;78;21057;-54
2022/10/25 03:16:18;;;;;;;11.57;6.05;;;;;;;8.30;84.91;101995.73;1845714;78;21126;-54
2022/10/25 03:18:46;;;;;;;11.48;5.08;;;;;;;8.30;84.84;101992.25;1846120;76;21076;-58
2022/10/25 03:21:15;;;;;;;13.28;5.08;;;;;;;8.27;85.07;101987.02;1860242;77;21105;-58
2022/10/25 03:23:44;;;;;;;12.00;5.72;;;;;;;8.25;85.00;101994.05;1853620;75;21138;-58
2022/10/25 03:26:13;;;;;;;8.05;5.10;;;;;;;8.24;85.11;101997.09;1845393;78;21032;-58
2022/10/25 03:28:41;;;;;;;11.57;4.55;;;;;;;8.20;85.25;101986.20;1850498;76;21125;-59
2022/10/25 03:31:15;;;;;;;11.08;5.22;;;;;;;8.19;85.34;101992.34;1847557;76;21110;-58
2022/10/25 03:33:44;;;;;;;7.65;4.60;;;;;;;8.18;85.47;101989.73;1845604;78;21155;-58
2022/10/25 03:36:14;;;;;;;12.33;3.92;;;;;;;8.20;85.34;101990.58;1845691;78;21486;-58
2022/10/25 03:38:42;;;;;;;10.63;4.65;;;;;;;8.22;85.24;101986.19;1845540;76;21498;-58
2022/10/25 03:41:11;;;;;;;11.10;4.45;;;;;;;8.23;85.31;101984.01;1839522;78;21078;-59
2022/10/25 03:43:40;;;;;;;14.90;4.00;;;;;;;8.21;85.51;101986.64;1872275;75;21548;-58
2022/10/25 03:46:09;;;;;;;10.25;4.00;;;;;;;8.19;85.47;101991.45;1889598;75;21043;-58
2022/10/25 03:48:38;;;;;;;9.13;4.15;;;;;;;8.17;85.52;101994.54;1913799;75;21516;-61
2022/10/25 03:51:07;;;;;;;11.53;4.83;;;;;;;8.12;85.49;101992.83;1904695;74;21090;-60
2022/10/25 03:53:35;;;;;;;8.70;4.67;;;;;;;8.10;85.37;101989.80;1903070;75;21168;-60
2022/10/25 03:56:04;;;;;;;10.75;4.28;;;;;;;8.10;85.54;101985.42;1906188;70;21180;-58
2022/10/25 03:58:33;;;;;;;10.70;4.78;;;;;;;8.08;85.62;101987.19;1895436;75;21501;-53
2022/10/25 04:01:01;;;;;;;9.15;4.30;;;;;;;8.05;85.77;101985.89;1905194;73;21140;-60
2022/10/25 04:03:30;;;;;;;12.95;9.18;;;;;;;8.02;85.98;101988.98;1915692;74;21491;-48
2022/10/25 04:05:59;;;;;;;10.43;7.08;;;;;;;8.00;86.04;101987.68;1928069;74;21152;-53
2022/10/25 04:08:27;;;;;;;11.63;6.47;;;;;;;7.98;86.23;101985.52;1906012;74;21034;-61
2022/10/25 04:10:56;;;;;;;10.78;6.00;;;;;;;7.96;86.34;101991.22;1905071;75;21006;-62
2022/10/25 04:13:25;;;;;;;11.50;5.62;;;;;;;7.93;86.32;101983.40;1902055;75;21128;-59
2022/10/25 04:15:54;;;;;;;10.63;4.90;;;;;;;7.91;86.33;101983.41;1892545;76;21113;-59
2022/10/25 04:18:22;;;;;;;8.75;3.95;;;;;;;7.90;86.31;101989.97;1892629;76;21018;-59
2022/10/25 04:20:51;;;;;;;12.05;5.58;;;;;;;7.89;86.37;101983.86;1894036;76;21096;-60
2022/10/25 04:23:20;;;;;;;9.33;5.28;;;;;;;7.89;86.40;101989.11;1894853;76;21048;-59
2022/10/25 04:25:49;;;;;;;11.33;5.12;;;;;;;7.90;86.55;101987.34;1895059;75;21064;-61
2022/10/25 04:28:18;;;;;;;11.63;7.00;;;;;;;7.97;86.78;101987.73;1895206;76;21496;-60
2022/10/25 04:30:46;;;;;;;12.60;5.28;;;;;;;8.12;86.82;101999.84;1895059;76;21126;-59
2022/10/25 04:33:15;;;;;;;12.18;5.00;;;;;;;8.26;86.77;102001.91;1895018;76;21191;-60
2022/10/25 04:35:44;;;;;;;13.88;5.67;;;;;;;8.40;86.60;102004.38;1895582;75;21107;-55
2022/10/25 04:38:13;;;;;;;9.90;4.70;;;;;;;8.50;86.60;102003.45;1898911;75;21057;-53
2022/10/25 04:40:41;;;;;;;8.40;4.47;;;;;;;8.62;86.50;102005.52;1899253;75;21050;-58
2022/10/25 04:43:10;;;;;;;8.10;4.53;;;;;;;8.72;86.47;102005.83;1899299;75;21058;-59
2022/10/25 04:45:39;;;;;;;7.95;4.40;;;;;;;8.81;86.27;102013.60;1896518;74;21003;-58
2022/10/25 04:48:07;;;;;;;5.53;4.00;;;;;;;8.87;86.16;102013.97;1901898;74;21213;-60
2022/10/25 04:50:37;;;;;;;8.75;4.37;;;;;;;8.90;86.18;102024.45;1900164;74;21049;-59
2022/10/25 04:53:06;;;;;;;8.20;4.45;;;;;;;8.90;86.29;102019.20;1896636;74;21114;-58
2022/10/25 04:55:35;;;;;;;6.78;3.95;;;;;;;8.94;86.40;102021.35;1929414;74;21073;-58
2022/10/25 04:58:04;;;;;;;10.10;4.25;;;;;;;9.01;86.38;102017.77;1901988;74;21022;-61
2022/10/25 05:00:33;;;;;;;8.13;4.75;;;;;;;9.07;86.41;102012.43;1898917;75;21120;-59
2022/10/25 05:03:01;;;;;;;13.05;4.75;;;;;;;9.14;86.57;102011.47;1907961;74;21449;-60
2022/10/25 05:05:30;;;;;;;11.55;5.70;;;;;;;9.24;86.55;102009.16;1929992;74;21003;-57
2022/10/25 05:07:59;;;;;;;9.55;4.85;;;;;;;9.39;86.54;102005.91;1930018;74;21414;-54
2022/10/25 05:10:27;;;;;;;10.63;5.42;;;;;;;9.53;86.32;102001.30;1930066;74;21047;-59
2022/10/25 05:12:56;;;;;;;12.37;5.62;;;;;;;9.72;86.03;102011.54;1930078;74;21062;-58
2022/10/25 05:15:25;;;;;;;8.53;4.62;;;;;;;9.89;85.71;102016.57;1929997;74;21082;-57
2022/10/25 05:17:56;;;;;;;9.15;5.28;;;;;;;10.02;85.39;102022.91;1901136;74;21052;-59
2022/10/25 05:20:25;;;;;;;13.90;5.35;;;;;;;10.14;85.01;102028.41;1865703;76;21640;-50
2022/10/25 05:22:55;;;;;;;10.98;4.90;;;;;;;10.27;84.79;102031.70;1829663;78;21075;-52
2022/10/25 05:25:23;;;;;;;11.93;5.35;;;;;;;10.39;84.51;102031.53;1824210;77;21118;-60
2022/10/25 05:27:52;;;;;;;12.55;4.40;;;;;;;10.51;84.19;102026.94;1857725;77;21451;-57
2022/10/25 05:30:21;;;;;;;8.95;4.22;;;;;;;10.55;84.00;102028.61;1844759;78;21155;-57
2022/10/25 05:32:51;;;;;;;9.65;4.05;;;;;;;10.61;83.92;102016.67;1844818;78;21061;-57
2022/10/25 05:35:19;;;;;;;18.17;4.83;;;;;;;10.79;83.67;102025.99;1846705;78;21077;-60
2022/10/25 05:37:48;;;;;;;10.50;4.10;;;;;;;10.96;83.47;102029.61;1844795;78;21037;-61
2022/10/25 05:40:17;;;;;;;16.20;6.05;;;;;;;11.18;83.32;102033.53;1844995;78;21566;-59
2022/10/25 05:42:46;;;;;;;11.48;5.17;;;;;;;11.71;83.01;102027.09;1826331;78;21157;-60
2022/10/25 05:45:15;;;;;;;8.53;3.92;;;;;;;12.46;82.64;102033.20;1826094;78;21090;-58
2022/10/25 05:47:44;;;;;;;15.23;5.00;;;;;;;13.41;82.07;102034.09;1826084;78;21441;-57
2022/10/25 05:50:12;;;;;;;13.28;3.95;;;;;;;14.29;81.22;102034.80;1824914;78;21129;-59
2022/10/25 05:52:44;;;;;;;14.18;4.80;;;;;;;14.72;80.17;102032.47;1857970;77;21130;-56
2022/10/25 05:55:13;;;;;;;12.35;4.53;;;;;;;14.95;79.78;102033.83;1827599;78;21194;-57
2022/10/25 05:57:42;;;;;;;11.88;5.55;;;;;;;15.16;78.91;102043.23;1828856;78;21106;-57
2022/10/25 06:00:12;;;;;;;16.90;5.10;;;;;;;15.42;78.15;102040.47;1859161;77;21123;-58
2022/10/25 06:02:40;;;;;;;17.65;4.92;;;;;;;16.04;77.34;102038.52;1863745;76;21157;-58
2022/10/25 06:05:09;;;;;;;13.40;4.17;;;;;;;17.04;76.12;102032.43;1867793;77;21122;-58
2022/10/25 06:07:38;;;;;;;19.80;4.00;;;;;;;17.78;74.65;102024.95;1868707;77;21133;-58
2022/10/25 06:10:07;;;;;;;10.00;3.27;;;;;;;17.70;73.73;102029.30;1868653;77;21116;-57
2022/10/25 06:12:36;;;;;;;12.75;3.25;;;;;;;17.69;73.61;102032.91;1868490;77;21155;-57
2022/10/25 06:15:06;;;;;;;18.65;4.12;;;;;;;18.29;72.69;102025.95;1868796;77;21044;-57
2022/10/25 06:17:35;;;;;;;12.50;3.10;;;;;;;18.05;71.92;102025.39;1868675;77;21081;-57
2022/10/25 06:20:04;;;;;;;7.90;2.50;;;;;;;17.62;71.83;102032.81;1868697;77;21104;-58
2022/10/25 06:22:32;;;;;;;11.33;2.67;;;;;;;17.62;71.27;102032.81;1868547;77;21029;-57
2022/10/25 06:25:01;;;;;;;13.10;2.87;;;;;;;17.67;70.62;102028.13;1868314;77;21260;-57
2022/10/25 06:27:30;;;;;;;7.75;2.45;;;;;;;17.57;69.87;102033.49;1867305;77;21058;-58
2022/10/25 06:29:59;;;;;;;6.12;2.87;;;;;;;17.52;69.68;102034.17;1866780;77;21152;-57
2022/10/25 06:32:28;;;;;;;12.05;3.37;;;;;;;17.41;69.68;102033.83;1868161;77;21040;-56
2022/10/25 06:34:57;;;;;;;9.70;3.10;;;;;;;17.49;69.29;102039.67;1868078;77;21556;-58
2022/10/25 06:37:26;;;;;;;11.97;2.95;;;;;;;17.49;69.15;102039.67;1868191;77;21173;-59
2022/10/25 06:40:00;;;;;;;26.23;3.75;;;;;;;17.93;68.65;102038.02;1868103;77;21142;-55
2022/10/25 06:42:25;;;;;;;16.57;3.20;;;;;;;18.04;68.30;102039.67;1866965;77;21063;-57
2022/10/25 06:44:56;;;;;;;17.98;3.05;;;;;;;18.08;68.08;102041.24;1873011;75;21046;-58
2022/10/25 06:47:29;;;;;;;13.40;3.45;;;;;;;18.31;67.58;102041.88;1839341;76;21130;-56
2022/10/25 06:49:58;;;;;;;19.50;3.52;;;;;;;19.10;66.41;102045.33;1841284;78;21591;-57
2022/10/25 06:52:28;;;;;;;13.85;3.25;;;;;;;20.31;64.58;102044.30;1839562;78;21164;-57
2022/10/25 06:54:57;;;;;;;7.03;2.37;;;;;;;21.41;62.53;102035.75;1839447;78;21037;-57
2022/10/25 06:57:25;;;;;;;10.15;2.40;;;;;;;22.40;61.14;102032.83;1843168;77;21033;-56
2022/10/25 06:59:54;;;;;;;6.75;2.70;;;;;;;23.32;59.63;102041.62;1837466;78;21090;-56
2022/10/25 07:02:23;;;;;;;6.40;2.70;;;;;;;24.15;58.69;102037.33;1839828;78;21067;-59
2022/10/25 07:04:52;;;;;;;9.48;3.02;;;;;;;23.93;58.51;102040.78;1825721;78;21123;-59
2022/10/25 07:07:20;;;;;;;6.95;2.58;;;;;;;24.61;56.85;102037.34;1803828;79;21065;-60
2022/10/25 07:09:49;;;;;;;10.98;2.62;;;;;;;25.27;55.71;102038.47;1803815;79;21089;-60
2022/10/25 07:12:18;;;;;;;7.78;2.17;;;;;;;25.66;54.67;102034.36;1803808;79;21377;-60
2022/10/25 07:14:47;;;;;;;5.72;1.72;;;;;;;26.20;53.00;102026.67;1819639;79;21068;-60
2022/10/25 07:17:16;;;;;;;5.92;1.70;;;;;;;26.70;51.81;102020.61;1861777;77;21078;-60
2022/10/25 07:19:44;;;;;;;5.87;1.62;;;;;;;26.83;49.93;102019.03;1830650;78;21066;-61
2022/10/25 07:22:13;;;;;;;5.53;1.32;;;;;;;27.00;49.24;102013.48;1830330;78;21113;-61
2022/10/25 07:24:42;;;;;;;5.78;1.55;;;;;;;27.24;48.13;102014.50;1830066;78;21034;-61
2022/10/25 07:27:11;;;;;;;4.15;1.57;;;;;;;27.37;47.48;102011.58;1830430;78;21089;-60
2022/10/25 07:29:40;;;;;;;4.03;1.55;;;;;;;27.83;46.89;102014.12;1830549;78;21137;-61
2022/10/25 07:32:09;;;;;;;3.58;1.62;;;;;;;28.43;46.00;102009.02;1830531;78;21133;-61
2022/10/25 07:34:38;;;;;;;3.12;1.30;;;;;;;28.65;44.19;102007.84;1830532;78;21140;-59
2022/10/25 07:37:07;;;;;;;2.83;1.30;;;;;;;28.70;43.43;102008.25;1830296;78;21233;-57
2022/10/25 07:39:36;;;;;;;2.08;1.00;;;;;;;28.91;42.40;102012.59;1830439;78;21059;-59
2022/10/25 07:42:04;;;;;;;2.95;1.10;;;;;;;28.67;40.38;102001.77;1830439;78;21120;-58
2022/10/25 07:44:33;;;;;;;2.15;0.95;;;;;;;28.62;40.16;102005.41;1830402;78;21082;-59
2022/10/25 07:47:02;;;;;;;4.37;1.10;;;;;;;28.51;39.57;102009.12;1833014;77;21173;-58
2022/10/25 07:49:31;;;;;;;2.15;0.90;;;;;;;28.47;38.89;102003.14;1837168;78;21065;-57
2022/10/25 07:52:00;;;;;;;3.02;1.15;;;;;;;28.74;38.30;101996.11;1837084;78;21105;-56
2022/10/25 07:54:29;;;;;;;2.37;0.80;;;;;;;29.02;37.89;101987.98;1819456;79;21256;-58
2022/10/25 07:56:57;;;;;;;2.62;1.05;;;;;;;29.54;35.91;101997.73;1839773;77;21073;-58
2022/10/25 07:59:26;;;;;;;2.12;1.02;;;;;;;29.83;35.68;101993.97;1839543;78;21146;-60
2022/10/25 08:01:55;;;;;;;2.90;1.00;;;;;;;29.79;35.51;101989.36;1837348;78;21526;-56
2022/10/25 08:04:24;;;;;;;2.52;0.90;;;;;;;29.29;34.94;101996.64;1828806;78;21112;-57
2022/10/25 08:06:53;;;;;;;2.70;0.70;;;;;;;29.59;35.45;101998.12;1828867;77;21490;-57
2022/10/25 08:09:21;;;;;;;1.02;0.70;;;;;;;29.60;34.49;101994.91;1829472;77;21124;-57
2022/10/25 08:11:50;;;;;;;2.52;0.98;;;;;;;29.40;34.50;101988.28;1829428;77;21093;-55
2022/10/25 08:14:19;;;;;;;2.65;1.12;;;;;;;29.60;34.49;101986.77;1852720;77;21143;-63
2022/10/25 08:16:48;;;;;;;3.85;1.40;;;;;;;29.41;33.55;101995.91;1854496;77;21161;-60
2022/10/25 08:19:17;;;;;;;2.58;1.00;;;;;;;29.42;33.91;102000.34;1854493;77;21130;-61
2022/10/25 08:21:46;;;;;;;6.20;1.25;;;;;;;29.57;34.04;101992.52;1854457;77;21154;-61
2022/10/25 08:24:15;;;;;;;5.17;1.32;;;;;;;29.94;33.44;101988.30;1853881;77;21076;-63
2022/10/25 08:26:44;;;;;;;2.00;1.45;;;;;;;29.96;33.71;101987.62;1854028;77;21126;-60
2022/10/25 08:29:14;;;;;;;1.98;1.15;;;;;;;28.78;35.23;101991.24;1854529;77;21134;-59
2022/10/25 08:31:44;;;;;;;2.40;1.30;;;;;;;27.07;37.14;102002.48;1843931;77;21504;-57
2022/10/25 08:34:12;;;;;;;2.58;0.90;;;;;;;28.25;36.37;101991.30;1830388;77;21070;-59
2022/10/25 08:36:41;;;;;;;3.08;0.90;;;;;;;28.24;36.43;101990.95;1839241;77;21047;-59
2022/10/25 08:39:10;;;;;;;1.62;1.05;;;;;;;26.59;38.04;101993.15;1818380;79;21109;-61
2022/10/25 08:41:41;;;;;;;2.98;1.02;;;;;;;26.17;38.49;101995.91;1826448;78;21138;-58
2022/10/25 08:44:22;;;;;;;3.83;0.95;;;;;;;26.51;38.19;101982.17;1844148;77;21045;-54
2022/10/25 08:47:03;;;;;;;1.30;0.93;;;;;;;27.86;36.46;101984.55;1847388;76;21074;-54
2022/10/25 08:49:40;;;;;;;2.67;0.90;;;;;;;28.99;34.92;101982.34;1852160;77;21155;-56
2022/10/25 08:52:12;;;;;;;2.05;1.17;;;;;;;29.70;34.08;101973.13;1872157;77;21539;-53
2022/10/25 08:54:43;;;;;;;1.32;0.90;;;;;;;28.33;34.22;101973.83;1869135;76;21171;-52
2022/10/25 08:57:21;;;;;;;1.42;0.90;;;;;;;25.96;37.30;101970.75;1825646;77;21034;-53
2022/10/25 08:59:58;;;;;;;2.17;1.00;;;;;;;24.28;39.86;101974.34;1817514;78;21164;-56
2022/10/25 09:02:42;;;;;;;2.42;1.20;;;;;;;22.85;42.28;101973.33;1816560;78;21043;-49
2022/10/25 09:05:14;;;;;;;1.22;0.80;;;;;;;22.03;43.83;101972.27;1805678;78;21072;-50
2022/10/25 09:07:50;;;;;;;2.15;0.90;;;;;;;21.25;45.64;101969.38;1825377;78;21030;-53
2022/10/25 09:10:40;;;;;;;1.80;0.88;;;;;;;20.66;46.99;101973.10;1837755;76;21157;-49
2022/10/25 09:13:25;;;;;;;2.67;0.80;;;;;;;20.37;47.65;101970.36;1805817;79;21067;-52
2022/10/25 09:15:56;;;;;;;6.12;2.10;;;;;;;20.18;48.11;101963.09;1826238;78;21558;-49
2022/10/25 09:18:44;;;;;;;2.47;1.30;;;;;;;20.12;48.61;101966.11;1812641;78;21054;-51
2022/10/25 09:21:32;;;;;;;4.08;1.10;;;;;;;19.95;49.03;101962.63;1837911;78;21129;-54
2022/10/25 09:24:22;;;;;;;3.17;1.07;;;;;;;19.81;49.39;101955.44;1805778;79;21099;-52
2022/10/25 09:26:57;;;;;;;12.63;5.05;;;;;;;19.78;49.57;101952.08;1821752;78;21097;-49
2022/10/25 09:29:31;;;;;;;15.40;6.15;;;;;;;19.78;49.73;101948.92;1827134;77;21066;-52
2022/10/25 09:32:03;;;;;;;10.50;3.30;;;;;;;19.78;49.90;101948.07;1828442;77;21512;-51
2022/10/25 09:34:34;;;;;;;4.87;1.02;;;;;;;20.08;49.89;101939.17;1830426;77;21069;-52
2022/10/25 09:37:06;;;;;;;3.37;1.10;;;;;;;22.26;46.84;101940.35;1830410;77;21181;-52
2022/10/25 09:39:37;;;;;;;2.85;0.88;;;;;;;24.55;43.11;101931.48;1844176;77;21083;-52
2022/10/25 09:42:08;;;;;;;1.62;0.82;;;;;;;26.29;40.65;101924.30;1854579;77;21055;-52
2022/10/25 09:44:42;;;;;;;1.30;0.82;;;;;;;27.16;38.97;101925.95;1853771;77;21060;-49
2022/10/25 09:47:32;;;;;;;3.98;1.20;;;;;;;26.70;38.78;101922.51;1851794;77;21060;-52
2022/10/25 09:50:13;;;;;;;7.15;1.50;;;;;;;25.12;39.54;101925.54;1826170;77;21081;-50
2022/10/25 09:53:00;;;;;;;9.55;3.40;;;;;;;23.27;42.30;101934.45;1825730;77;21506;-56
2022/10/25 09:55:38;;;;;;;3.40;1.17;;;;;;;22.02;44.56;101928.97;1787423;79;21078;-57
2022/10/25 09:58:13;;;;;;;2.00;1.22;;;;;;;21.14;46.17;101925.91;1824421;78;21212;-59
2022/10/25 10:00:42;;;;;;;14.53;4.33;;;;;;;20.61;47.53;101932.38;1840716;77;21232;-59
2022/10/25 10:03:14;;;;;;;3.87;1.92;;;;;;;20.29;48.65;101930.31;1808911;78;21134;-57
2022/10/25 10:05:46;;;;;;;1.90;0.70;;;;;;;19.99;49.64;101918.74;1827315;78;21062;-58
2022/10/25 10:08:15;;;;;;;1.85;1.35;;;;;;;19.73;50.18;101936.78;1828713;78;21066;-54
2022/10/25 10:10:47;;;;;;;2.20;1.20;;;;;;;19.48;51.00;101939.05;1828745;78;21061;-48
2022/10/25 10:13:18;;;;;;;4.33;1.50;;;;;;;19.29;51.37;101929.90;1828302;78;21121;-52
2022/10/25 10:15:56;;;;;;;2.45;1.22;;;;;;;19.16;51.74;101936.00;1822402;79;21508;-54
2022/10/25 10:18:28;;;;;;;2.75;1.32;;;;;;;19.02;52.04;101940.31;1822363;79;21082;-51
2022/10/25 10:21:02;;;;;;;2.50;1.15;;;;;;;18.81;52.87;101937.03;1822294;79;21066;-52
2022/10/25 10:23:34;;;;;;;2.92;1.20;;;;;;;18.61;53.80;101935.86;1822201;79;21058;-49
2022/10/25 10:26:21;;;;;;;3.10;1.22;;;;;;;18.48;53.95;101924.55;1815242;78;21086;-58
2022/10/25 10:28:52;;;;;;;1.35;1.00;;;;;;;18.37;54.71;101932.26;1820611;79;21094;-59
2022/10/25 10:31:22;;;;;;;3.17;1.27;;;;;;;18.28;54.94;101932.74;1822250;79;21070;-59
2022/10/25 10:33:51;;;;;;;2.08;1.00;;;;;;;18.26;55.21;101931.94;1822544;79;21535;-57
2022/10/25 10:36:26;;;;;;;2.85;1.10;;;;;;;18.19;55.67;101934.56;1822668;79;21547;-60
2022/10/25 10:38:57;;;;;;;1.95;1.57;;;;;;;18.05;56.67;101928.59;1822763;79;21035;-57
2022/10/25 10:41:28;;;;;;;2.90;1.60;;;;;;;17.94;57.30;101926.48;1819303;79;21152;-57
2022/10/25 10:44:14;;;;;;;3.55;2.00;;;;;;;17.84;57.66;101926.54;1822789;79;21125;-52
2022/10/25 10:46:48;;;;;;;2.33;1.17;;;;;;;17.75;58.22;101922.05;1822670;79;21094;-58
2022/10/25 10:49:17;;;;;;;2.02;1.40;;;;;;;17.66;58.20;101922.52;1822768;78;21071;-55
2022/10/25 10:51:46;;;;;;;6.00;1.82;;;;;;;17.62;58.17;101924.09;1837207;78;21128;-57
2022/10/25 10:54:27;;;;;;;3.33;1.80;;;;;;;17.59;58.22;101920.24;1837173;78;21144;-58
2022/10/25 10:57:04;;;;;;;4.67;2.10;;;;;;;17.52;58.90;101920.55;1842447;77;21100;-57
2022/10/25 10:59:39;;;;;;;3.30;1.42;;;;;;;17.49;59.15;101922.03;1845069;78;21094;-53
2022/10/25 11:02:19;;;;;;;3.17;1.75;;;;;;;17.49;59.12;101923.84;1805832;78;21030;-57
2022/10/25 11:04:53;;;;;;;3.17;1.65;;;;;;;17.51;59.04;101915.30;1808485;78;21632;-61
2022/10/25 11:07:25;;;;;;;6.03;2.05;;;;;;;17.49;59.45;101919.84;1844919;78;21047;-58
2022/10/25 11:09:55;;;;;;;6.83;1.85;;;;;;;17.51;59.56;101913.97;1836622;76;21511;-59
2022/10/25 11:12:24;;;;;;;7.67;1.60;;;;;;;17.40;60.40;101909.17;1832242;78;21061;-59
2022/10/25 11:14:54;;;;;;;5.40;1.32;;;;;;;17.36;60.69;101913.78;1837244;78;21062;-60
2022/10/25 11:17:28;;;;;;;3.72;1.67;;;;;;;17.36;60.60;101907.13;1837338;78;21057;-60
2022/10/25 11:20:08;;;;;;;3.45;1.40;;;;;;;17.42;60.45;101907.77;1837137;78;21108;-60
2022/10/25 11:22:40;;;;;;;3.92;1.57;;;;;;;17.46;60.40;101910.66;1836607;78;21069;-60
2022/10/25 11:25:30;;;;;;;3.40;1.67;;;;;;;17.49;60.37;101909.19;1837259;77;21142;-58
2022/10/25 11:28:14;;;;;;;6.03;1.52;;;;;;;17.50;60.32;101910.90;1806417;78;21069;-60
2022/10/25 11:31:05;;;;;;;3.70;1.37;;;;;;;17.52;60.32;101903.69;1806516;79;21171;-63
2022/10/25 11:33:53;;;;;;;2.27;1.60;;;;;;;17.58;60.33;101907.41;1776109;79;21189;-62
2022/10/25 11:36:47;;;;;;;4.55;1.20;;;;;;;17.71;60.12;101900.52;1806292;79;21140;-61
2022/10/25 11:39:22;;;;;;;2.20;1.40;;;;;;;17.95;59.58;101906.90;1807947;78;21065;-59
2022/10/25 11:41:59;;;;;;;3.45;1.10;;;;;;;18.02;59.10;101908.31;1804547;79;21136;-62
2022/10/25 11:44:40;;;;;;;3.10;1.47;;;;;;;18.13;58.83;101909.94;1805832;79;21634;-60
2022/10/25 11:47:39;;;;;;;5.08;1.40;;;;;;;18.25;58.56;101907.56;1806985;78;21519;-61